createdAt,value
2023-01-08T00:00:08.387Z,92.04
2023-01-08T00:03:17.686Z,92.14
2023-01-08T00:06:07.443Z,92.18
2023-01-08T00:08:53.984Z,92.23
2023-01-08T00:11:42.170Z,92.17
2023-01-08T00:14:33.720Z,92.11
2023-01-08T00:17:20.605Z,92.00
2023-01-08T00:20:12.632Z,92.07
2023-01-08T00:22:59.316Z,92.05
2023-01-08T00:25:46.966Z,91.94
2023-01-08T00:28:33.944Z,91.92
2023-01-08T00:31:20.860Z,91.80
2023-01-08T00:34:08.081Z,91.86
2023-01-08T00:36:54.635Z,91.78
2023-01-08T00:39:42.761Z,91.76
2023-01-08T00:42:31.692Z,91.84
2023-01-08T00:45:19.650Z,91.85
2023-01-08T00:48:08.353Z,91.85
2023-01-08T00:50:55.459Z,91.90
2023-01-08T00:53:43.942Z,91.92
2023-01-08T00:56:30.829Z,91.80
2023-01-08T00:59:21.559Z,91.68
2023-01-08T01:02:08.661Z,91.66
2023-01-08T01:04:55.451Z,91.68
2023-01-08T01:07:45.521Z,91.58
2023-01-08T01:10:32.361Z,91.50
2023-01-08T01:13:19.194Z,91.55
2023-01-08T01:16:07.760Z,91.52
2023-01-08T01:18:57.699Z,91.61
2023-01-08T01:21:44.564Z,91.60
2023-01-08T01:24:31.604Z,91.62
2023-01-08T01:27:18.192Z,91.67
2023-01-08T01:30:06.611Z,91.68
2023-01-08T01:32:53.504Z,91.53
2023-01-08T01:35:40.273Z,91.61
2023-01-08T01:38:27.013Z,91.65
2023-01-08T01:41:32.683Z,91.59
2023-01-08T01:44:45.380Z,91.57
2023-01-08T01:47:39.862Z,91.54
2023-01-08T01:50:30.792Z,91.55
2023-01-08T01:53:34.521Z,91.59
2023-01-08T01:56:22.577Z,91.59
2023-01-08T01:59:10.912Z,91.62
2023-01-08T02:01:58.519Z,91.63
2023-01-08T02:04:45.103Z,91.58
2023-01-08T02:07:53.945Z,91.53
2023-01-08T02:10:49.044Z,91.59
2023-01-08T02:13:49.079Z,91.51
2023-01-08T02:17:01.241Z,91.39
2023-01-08T02:19:58.120Z,91.31
2023-01-08T02:22:56.522Z,91.20
2023-01-08T02:25:43.198Z,91.12
2023-01-08T02:28:32.688Z,91.07
2023-01-08T02:31:21.598Z,90.96
2023-01-08T02:34:09.284Z,90.96
2023-01-08T02:36:57.648Z,90.78
2023-01-08T02:39:43.877Z,90.67
2023-01-08T02:42:43.560Z,90.38
2023-01-08T02:45:36.266Z,90.37
2023-01-08T02:49:07.631Z,90.38
2023-01-08T02:51:57.552Z,90.55
2023-01-08T02:54:47.057Z,90.68
2023-01-08T02:57:34.434Z,90.82
2023-01-08T03:00:21.336Z,90.84
2023-01-08T03:03:20.011Z,90.81
2023-01-08T03:06:10.541Z,90.94
2023-01-08T03:08:59.318Z,90.96
2023-01-08T03:12:00.759Z,91.08
2023-01-08T03:15:04.383Z,91.20
2023-01-08T03:17:55.850Z,91.15
2023-01-08T03:20:44.160Z,91.13
2023-01-08T03:23:34.831Z,91.18
2023-01-08T03:26:26.281Z,91.17
2023-01-08T03:29:17.933Z,91.15
2023-01-08T03:32:11.397Z,91.04
2023-01-08T03:35:00.716Z,90.88
2023-01-08T03:37:54.945Z,90.83
2023-01-08T03:40:47.355Z,90.72
2023-01-08T03:43:34.155Z,90.61
2023-01-08T03:46:29.233Z,90.56
2023-01-08T03:49:17.858Z,90.40
2023-01-08T03:52:04.455Z,90.20
2023-01-08T03:54:51.920Z,90.08
2023-01-08T03:57:39.107Z,90.02
2023-01-08T04:00:25.935Z,89.74
2023-01-08T04:03:12.572Z,89.68
2023-01-08T04:06:00.420Z,89.67
2023-01-08T04:08:50.589Z,89.52
2023-01-08T04:11:38.716Z,89.44
2023-01-08T04:14:25.539Z,89.46
2023-01-08T04:17:13.425Z,89.50
2023-01-08T04:19:59.834Z,89.20
2023-01-08T04:22:46.446Z,89.04
2023-01-08T04:25:33.392Z,88.79
2023-01-08T04:28:21.070Z,88.81
2023-01-08T04:31:09.262Z,89.09
2023-01-08T04:33:55.629Z,89.28
2023-01-08T04:36:42.416Z,89.34
2023-01-08T04:39:29.654Z,89.44
2023-01-08T04:42:15.915Z,89.28
2023-01-08T04:45:02.762Z,89.42
2023-01-08T04:47:55.984Z,89.19
2023-01-08T04:50:42.696Z,89.03
2023-01-08T04:53:30.815Z,89.01
2023-01-08T04:56:17.548Z,88.79
2023-01-08T04:59:04.304Z,88.70
2023-01-08T05:01:51.164Z,88.65
2023-01-08T05:04:37.795Z,88.70
2023-01-08T05:07:25.108Z,88.58
2023-01-08T05:10:11.833Z,88.58
2023-01-08T05:13:01.713Z,88.68
2023-01-08T05:15:48.770Z,88.84
2023-01-08T05:18:49.711Z,88.77
2023-01-08T05:21:36.975Z,88.62
2023-01-08T05:24:24.377Z,88.50
2023-01-08T05:27:11.057Z,88.33
2023-01-08T05:29:58.187Z,88.24
2023-01-08T05:32:44.904Z,88.14
2023-01-08T05:35:31.513Z,88.06
2023-01-08T05:38:18.465Z,87.90
2023-01-08T05:41:05.524Z,87.91
2023-01-08T05:43:52.114Z,87.91
2023-01-08T05:46:38.810Z,87.85
2023-01-08T05:49:25.801Z,88.04
2023-01-08T05:52:12.259Z,88.35
2023-01-08T05:55:00.238Z,88.44
2023-01-08T05:57:46.919Z,88.65
2023-01-08T06:00:34.733Z,88.66
2023-01-08T06:03:23.059Z,88.64
2023-01-08T06:06:11.536Z,88.77
2023-01-08T06:08:58.639Z,88.84
2023-01-08T06:11:45.536Z,88.70
2023-01-08T06:14:32.272Z,88.54
2023-01-08T06:17:21.543Z,88.50
2023-01-08T06:20:08.888Z,88.18
2023-01-08T06:22:55.236Z,88.08
2023-01-08T06:25:41.835Z,87.82
2023-01-08T06:28:28.431Z,87.60
2023-01-08T06:34:18.189Z,87.10
2023-01-08T06:37:05.032Z,86.88
2023-01-08T06:39:51.728Z,86.99
2023-01-08T06:42:38.575Z,87.03
2023-01-08T06:45:25.211Z,87.08
2023-01-08T06:48:11.849Z,86.83
2023-01-08T06:51:02.904Z,86.62
2023-01-08T06:53:49.697Z,86.40
2023-01-08T06:56:48.985Z,86.40
2023-01-08T06:59:39.962Z,86.32
2023-01-08T07:02:27.086Z,86.42
2023-01-08T07:05:13.952Z,86.45
2023-01-08T07:08:00.916Z,86.32
2023-01-08T07:10:48.007Z,86.49
2023-01-08T07:13:36.808Z,86.80
2023-01-08T07:16:24.674Z,86.91
2023-01-08T07:19:12.786Z,86.77
2023-01-08T07:22:00.898Z,86.84
2023-01-08T07:24:47.757Z,86.94
2023-01-08T07:27:34.351Z,87.07
2023-01-08T07:30:29.907Z,87.20
2023-01-08T07:33:20.141Z,87.13
2023-01-08T07:36:07.438Z,86.98
2023-01-08T07:38:54.854Z,86.84
2023-01-08T07:41:41.567Z,86.96
2023-01-08T07:44:28.168Z,86.88
2023-01-08T07:47:15.054Z,86.65
2023-01-08T07:50:03.788Z,86.31
2023-01-08T07:52:50.320Z,86.24
2023-01-08T07:55:37.325Z,86.09
2023-01-08T07:58:23.954Z,85.98
2023-01-08T08:01:14.013Z,86.12
2023-01-08T08:04:01.410Z,86.02
2023-01-08T08:06:48.378Z,85.85
2023-01-08T08:09:37.223Z,85.76
2023-01-08T08:12:24.982Z,85.76
2023-01-08T08:15:12.189Z,85.72
2023-01-08T08:17:59.439Z,85.84
2023-01-08T08:20:46.249Z,86.09
2023-01-08T08:23:35.184Z,86.13
2023-01-08T08:26:23.777Z,86.27
2023-01-08T08:29:13.966Z,86.18
2023-01-08T08:34:09.925Z,85.93
2023-01-08T08:36:56.676Z,85.90
2023-01-08T08:39:44.557Z,86.03
2023-01-08T08:42:31.125Z,85.95
2023-01-08T08:45:37.861Z,86.07
2023-01-08T08:48:25.116Z,85.76
2023-01-08T08:51:11.964Z,85.63
2023-01-08T08:53:58.646Z,85.32
2023-01-08T08:56:48.671Z,85.29
2023-01-08T08:59:36.509Z,85.11
2023-01-08T09:02:23.430Z,84.99
2023-01-08T09:05:11.373Z,85.04
2023-01-08T09:07:58.788Z,84.75
2023-01-08T09:10:45.332Z,84.82
2023-01-08T09:13:32.227Z,84.84
2023-01-08T09:16:19.130Z,85.01
2023-01-08T09:19:08.129Z,84.97
2023-01-08T09:21:56.181Z,85.09
2023-01-08T09:24:44.943Z,84.97
2023-01-08T09:27:32.051Z,84.91
2023-01-08T09:30:18.579Z,84.84
2023-01-08T09:33:05.895Z,85.01
2023-01-08T09:35:52.926Z,84.79
2023-01-08T09:38:39.489Z,84.83
2023-01-08T09:41:31.103Z,84.96
2023-01-08T09:44:22.690Z,85.14
2023-01-08T09:47:28.754Z,84.86
2023-01-08T09:50:15.726Z,84.57
2023-01-08T09:53:02.890Z,84.47
2023-01-08T09:56:10.129Z,84.59
2023-01-08T09:59:03.319Z,84.09
2023-01-08T10:01:52.559Z,83.87
2023-01-08T10:04:44.083Z,83.59
2023-01-08T10:07:31.341Z,83.53
2023-01-08T10:10:21.882Z,83.70
2023-01-08T10:13:11.512Z,83.34
2023-01-08T10:15:59.992Z,83.27
2023-01-08T10:18:47.366Z,82.74
2023-01-08T10:21:40.536Z,82.93
2023-01-08T10:24:36.256Z,83.14
2023-01-08T10:27:25.100Z,82.72
2023-01-08T10:30:19.933Z,82.30
2023-01-08T10:33:13.569Z,82.30
2023-01-08T10:36:04.137Z,82.02
2023-01-08T10:38:59.752Z,81.79
2023-01-08T10:41:48.740Z,82.00
2023-01-08T10:44:36.551Z,81.80
2023-01-08T10:47:24.211Z,81.45
2023-01-08T10:50:21.075Z,81.46
2023-01-08T10:53:24.728Z,81.68
2023-01-08T10:56:42.243Z,81.77
2023-01-08T10:59:29.459Z,81.84
2023-01-08T11:02:42.571Z,81.83
2023-01-08T11:05:37.213Z,81.93
2023-01-08T11:08:24.965Z,81.96
2023-01-08T11:11:12.155Z,81.99
2023-01-08T11:14:01.087Z,81.69
2023-01-08T11:16:48.541Z,81.62
2023-01-08T11:19:35.321Z,81.71
2023-01-08T11:22:24.364Z,81.73
2023-01-08T11:25:19.989Z,81.68
2023-01-08T11:28:13.016Z,81.19
2023-01-08T11:31:14.542Z,81.49
2023-01-08T11:34:36.078Z,81.57
2023-01-08T11:37:30.700Z,81.44
2023-01-08T11:40:26.333Z,81.26
2023-01-08T11:43:16.402Z,81.04
2023-01-08T11:46:33.718Z,80.99
2023-01-08T11:49:39.805Z,80.78
2023-01-08T11:52:36.011Z,80.54
2023-01-08T11:55:38.882Z,80.67
2023-01-08T11:58:38.595Z,80.88
2023-01-08T12:01:49.167Z,80.98
2023-01-08T12:04:46.559Z,81.12
2023-01-08T12:07:50.276Z,81.20
2023-01-08T12:11:27.650Z,81.26
2023-01-08T12:14:36.291Z,81.55
2023-01-08T12:24:15.553Z,81.15
2023-01-08T12:27:18.236Z,81.28
2023-01-08T12:30:12.414Z,81.13
2023-01-08T12:33:05.710Z,80.85
2023-01-08T12:36:00.457Z,80.81
2023-01-08T12:38:54.915Z,80.91
2023-01-08T12:41:45.652Z,81.17
2023-01-08T12:44:33.451Z,81.28
2023-01-08T12:47:25.767Z,81.31
2023-01-08T12:50:39.143Z,81.43
2023-01-08T12:53:48.783Z,81.77
2023-01-08T12:57:07.255Z,81.78
2023-01-08T13:00:24.839Z,81.84
2023-01-08T13:03:15.458Z,81.90
2023-01-08T13:06:17.298Z,81.88
2023-01-08T13:09:04.740Z,82.12
2023-01-08T13:11:53.998Z,82.25
2023-01-08T13:14:49.582Z,82.29
2023-01-08T13:17:37.936Z,82.53
2023-01-08T13:20:27.832Z,82.50
2023-01-08T13:23:27.505Z,82.56
2023-01-08T13:26:14.398Z,82.67
2023-01-08T13:29:23.841Z,82.79
2023-01-08T13:32:47.489Z,82.76
2023-01-08T13:35:34.682Z,82.78
2023-01-08T13:53:03.967Z,83.52
2023-01-08T13:56:05.579Z,83.70
2023-01-08T13:58:53.946Z,84.17
2023-01-08T14:01:39.093Z,84.45
2023-01-08T14:04:24.904Z,84.65
2023-01-08T14:07:13.453Z,84.75
2023-01-08T14:10:13.307Z,84.78
2023-01-08T14:13:07.037Z,84.75
2023-01-08T14:15:52.752Z,84.74
2023-01-08T14:18:46.332Z,84.94
2023-01-08T14:21:31.902Z,84.85
2023-01-08T14:24:19.579Z,84.89
2023-01-08T14:27:27.634Z,85.10
2023-01-08T14:30:16.809Z,85.22
2023-01-08T14:33:03.971Z,85.32
2023-01-08T14:35:52.377Z,85.43
2023-01-08T14:38:39.146Z,85.52
2023-01-08T14:41:56.733Z,85.53
2023-01-08T14:44:46.096Z,85.54
2023-01-08T14:47:55.850Z,85.38
2023-01-08T14:50:45.536Z,85.38
2023-01-08T14:53:43.059Z,85.36
2023-01-08T14:56:36.053Z,85.44
2023-01-08T14:59:28.301Z,85.16
2023-01-08T15:02:25.207Z,85.09
2023-01-08T15:05:15.298Z,84.72
2023-01-08T15:08:22.742Z,84.72
2023-01-08T15:11:18.858Z,84.83
2023-01-08T15:14:14.713Z,84.87
2023-01-08T15:17:17.242Z,84.92
2023-01-08T15:20:05.461Z,85.01
2023-01-08T15:22:52.362Z,84.96
2023-01-08T15:25:39.016Z,85.03
2023-01-08T15:28:26.846Z,84.92
2023-01-08T15:31:33.269Z,84.94
2023-01-08T15:34:20.947Z,84.70
2023-01-08T15:37:07.696Z,84.74
2023-01-08T15:40:00.397Z,84.57
2023-01-08T15:43:05.664Z,84.57
2023-01-08T15:45:52.078Z,84.67
2023-01-08T15:48:39.281Z,84.63
2023-01-08T15:51:30.160Z,84.63
2023-01-08T15:54:17.088Z,84.55
2023-01-08T15:57:03.647Z,84.37
2023-01-08T15:59:50.555Z,84.50
2023-01-08T16:02:46.702Z,84.49
2023-01-08T16:05:35.184Z,84.63
2023-01-08T16:08:22.350Z,84.62
2023-01-08T16:11:08.817Z,84.62
2023-01-08T16:13:55.724Z,84.74
2023-01-08T16:17:16.661Z,84.78
2023-01-08T16:20:25.797Z,84.87
2023-01-08T16:23:14.211Z,84.76
2023-01-08T16:26:04.753Z,84.90
2023-01-08T16:28:51.613Z,84.93
2023-01-08T16:31:38.685Z,84.86
2023-01-08T16:34:25.313Z,84.93
2023-01-08T16:37:11.997Z,84.71
2023-01-08T16:39:58.867Z,84.77
2023-01-08T16:42:46.207Z,84.90
2023-01-08T16:45:33.345Z,84.67
2023-01-08T16:48:20.199Z,84.80
2023-01-08T16:51:07.411Z,84.83
2023-01-08T16:53:54.502Z,84.89
2023-01-08T16:56:41.042Z,84.82
2023-01-08T16:59:27.976Z,84.88
2023-01-08T17:02:16.868Z,84.86
2023-01-08T17:05:03.964Z,84.83
2023-01-08T17:07:52.813Z,84.61
2023-01-08T17:10:39.769Z,84.58
2023-01-08T17:13:26.453Z,84.51
2023-01-08T17:16:15.727Z,84.43
2023-01-08T17:19:03.206Z,84.48
2023-01-08T17:21:51.418Z,84.62
2023-01-08T17:24:39.528Z,84.73
2023-01-08T17:27:26.778Z,84.77
2023-01-08T17:30:17.074Z,84.81
2023-01-08T17:33:04.288Z,84.79
2023-01-08T17:35:51.583Z,84.72
2023-01-08T17:44:52.893Z,85.03
2023-01-08T17:47:39.829Z,85.00
2023-01-08T17:50:27.735Z,85.13
2023-01-08T17:53:14.729Z,85.21
2023-01-08T17:56:05.855Z,85.24
2023-01-08T17:58:52.470Z,85.15
2023-01-08T18:01:39.304Z,85.16
2023-01-08T18:04:27.757Z,85.22
2023-01-08T18:07:15.562Z,85.21
2023-01-08T18:10:03.731Z,85.13
2023-01-08T18:12:50.249Z,85.24
2023-01-08T18:15:36.888Z,85.42
2023-01-08T18:18:23.796Z,85.62
2023-01-08T18:21:10.577Z,85.77
2023-01-08T18:23:57.249Z,85.90
2023-01-08T18:26:46.751Z,85.82
2023-01-08T18:29:34.471Z,85.77
2023-01-08T18:32:25.934Z,85.63
2023-01-08T18:35:12.887Z,85.66
2023-01-08T18:37:59.503Z,85.71
2023-01-08T18:40:46.426Z,85.61
2023-01-08T18:43:35.498Z,85.32
2023-01-08T18:46:25.639Z,85.26
2023-01-08T18:49:12.464Z,85.28
2023-01-08T18:52:02.532Z,85.35
2023-01-08T18:54:49.171Z,85.45
2023-01-08T18:57:35.702Z,85.45
2023-01-08T19:00:23.413Z,85.36
2023-01-08T19:03:12.318Z,85.47
2023-01-08T19:05:59.452Z,85.31
2023-01-08T19:08:46.016Z,85.46
2023-01-08T19:11:32.547Z,85.47
2023-01-08T19:14:19.247Z,85.27
2023-01-08T19:17:05.993Z,85.25
2023-01-08T19:19:53.065Z,85.31
2023-01-08T19:22:39.769Z,85.51
2023-01-08T19:25:27.119Z,85.62
2023-01-08T19:28:15.682Z,85.68
2023-01-08T19:31:02.800Z,85.75
2023-01-08T19:33:49.240Z,85.71
2023-01-08T19:36:42.340Z,85.63
2023-01-08T19:39:30.390Z,85.76
2023-01-08T19:42:35.547Z,85.54
2023-01-08T19:45:22.152Z,85.52
2023-01-08T19:48:10.465Z,85.57
2023-01-08T19:50:59.090Z,85.51
2023-01-08T19:53:47.165Z,85.54
2023-01-08T19:56:33.643Z,85.59
2023-01-08T19:59:21.762Z,85.78
2023-01-08T20:02:10.308Z,85.81
2023-01-08T20:04:57.186Z,85.95
2023-01-08T20:07:46.506Z,85.93
2023-01-08T20:12:28.948Z,85.80
2023-01-08T20:15:16.966Z,85.79
2023-01-08T20:18:03.163Z,85.79
2023-01-08T20:20:50.344Z,85.86
2023-01-08T20:23:36.850Z,85.89
2023-01-08T20:26:21.991Z,85.81
2023-01-08T20:29:14.029Z,85.76
2023-01-08T20:37:56.003Z,85.72
2023-01-08T20:40:42.593Z,85.81
2023-01-08T20:43:29.298Z,86.06
2023-01-08T20:46:15.994Z,86.27
2023-01-08T20:49:05.280Z,86.33
2023-01-08T20:51:58.545Z,86.30
2023-01-08T20:54:46.362Z,86.28
2023-01-08T20:57:32.921Z,86.19
2023-01-08T21:00:21.527Z,86.21
2023-01-08T21:03:08.216Z,86.27
2023-01-08T21:05:54.437Z,86.43
2023-01-08T21:08:41.491Z,86.74
2023-01-08T21:11:28.082Z,86.58
2023-01-08T21:14:14.233Z,86.69
2023-01-08T21:17:00.980Z,86.84
2023-01-08T21:19:47.439Z,86.85
2023-01-08T21:22:34.062Z,86.80
2023-01-08T21:25:20.638Z,86.85
2023-01-08T21:28:08.151Z,86.93
2023-01-08T21:34:32.855Z,87.05
2023-01-08T21:37:18.358Z,87.13
2023-01-08T21:40:06.144Z,87.28
2023-01-08T21:43:09.939Z,87.31
2023-01-08T21:46:00.905Z,87.39
2023-01-08T21:48:50.920Z,87.48
2023-01-08T21:51:54.714Z,87.66
2023-01-08T21:54:40.167Z,87.78
2023-01-08T21:57:28.871Z,87.84
2023-01-08T22:00:14.640Z,87.93
2023-01-08T22:02:59.922Z,87.90
2023-01-08T22:05:56.684Z,87.92
2023-01-08T22:08:42.200Z,87.90
2023-01-08T22:11:27.425Z,87.90
2023-01-08T22:14:13.071Z,87.97
2023-01-08T22:16:58.465Z,88.05
2023-01-08T22:19:43.649Z,88.00
2023-01-08T22:22:29.133Z,88.01
2023-01-08T22:25:14.285Z,88.00
2023-01-08T22:27:59.462Z,87.99
2023-01-08T22:30:44.804Z,87.93
2023-01-08T22:33:29.956Z,87.89
2023-01-08T22:36:15.182Z,87.94
2023-01-08T22:39:04.749Z,87.94
2023-01-08T22:41:49.921Z,87.93
2023-01-08T22:44:35.192Z,87.96
2023-01-08T22:47:20.962Z,88.09
2023-01-08T22:50:06.235Z,88.07
2023-01-08T22:52:51.275Z,88.05
2023-01-08T22:55:45.513Z,88.03
2023-01-08T22:58:30.732Z,87.98
2023-01-08T23:01:26.886Z,88.09
2023-01-08T23:04:12.363Z,88.25
2023-01-08T23:06:57.901Z,88.26
2023-01-08T23:09:43.193Z,88.30
2023-01-08T23:12:31.656Z,88.24
2023-01-08T23:15:19.056Z,88.44
2023-01-08T23:18:05.022Z,88.54
2023-01-08T23:20:50.286Z,88.68
2023-01-08T23:23:36.093Z,88.61
2023-01-08T23:26:27.429Z,88.56
2023-01-08T23:29:12.890Z,88.65
2023-01-08T23:31:58.233Z,88.67
2023-01-08T23:34:43.364Z,88.66
2023-01-08T23:37:28.757Z,88.71
2023-01-08T23:40:13.934Z,88.70
2023-01-08T23:42:59.428Z,88.79
2023-01-08T23:45:44.886Z,88.79
2023-01-08T23:48:30.632Z,88.70
2023-01-08T23:51:15.879Z,88.67
2023-01-08T23:54:02.258Z,88.73
2023-01-08T23:56:48.516Z,88.53
2023-01-08T23:59:33.667Z,88.55
